Huvudsida
METAR-TAF:

METAR-TAF

Flygplatser :

Florø flygplats

Florø, Norge

latitud: 61-35N, longitud: 005-02E, höjd: 0 m

Aktuellt väderrapport

Denna rapport gjordes för 24 minuter sedan, klockan 15:50 UTC
Vind 20 kt från syd/sydost
Temperatur 11°C
Fuktighet 76%
Tryck 1012 hPa
Sikt 10 km eller mer
Få moln på en höjd av 2000 ft
Brutna moln på en höjd av 2500 ft
lätta regnskurar

METAR: ENFL 141550Z 16020KT 9999 -SHRA FEW020 BKN025 11/07 Q1012

Tid: 17:14 (16:14 UTC)

Väderprognos

Denna rapport gjordes för 2 timmar och 14 minuter sedan, klockan 14:00 UTC
Prognos gäller från 14 kl. 15 UTC till 14 kl. 21 UTC
Vind 20 kt från syd/sydost i byarna ända upp till 30 kt
Sikt 10 km eller mer
Få moln på en höjd av 2000 ft
Brutna moln på en höjd av 3000 ft
Sannolikhet 30% :
Temporärt
från 14 kl. 15 UTC till 14 kl. 21 UTC
Sikt: 4000 m
Brutna moln på en höjd av 1000 ft
regn, duggregn

TAF: ENFL 141400Z 1415/1421 16020G30KT 9999 FEW020 BKN030 PROB30 TEMPO 1415/1421 4000 RADZ BKN010

Aktuella väderrapporter och prognoser från 4000 flygplatser (METAR- och TAF-rapporter).

De tillgängliga stationerna syns som gula och röda prickar på kartan.

För musen över prickarna för att se namnen på stationerna.

Klicka sedan för att få väderrapporter och prognoser.

För att ändra kartan: Klicka på de gröna knapparna med ett svart kors på för att zooma in; den gröna knappen med ett streck på för att zooma ut; eller på de gröna pilarna för angränsande kartor.


METAR-TAF: